createdAt,value
2018-06-14T00:00:16.322Z,98.20
2018-06-14T00:02:45.374Z,98.20
2018-06-14T00:05:14.046Z,98.40
2018-06-14T00:07:42.864Z,98.40
2018-06-14T00:10:12.400Z,98.60
2018-06-14T00:12:41.239Z,98.60
2018-06-14T00:15:10.932Z,98.30
2018-06-14T00:17:39.529Z,98.40
2018-06-14T00:20:09.079Z,98.50
2018-06-14T00:22:37.627Z,98.70
2018-06-14T00:25:06.288Z,98.60
2018-06-14T00:27:34.935Z,98.40
2018-06-14T00:32:31.918Z,98.50
2018-06-14T00:35:00.478Z,98.60
2018-06-14T00:37:29.079Z,98.70
2018-06-14T00:39:57.690Z,98.80
2018-06-14T00:42:26.324Z,98.90
2018-06-14T00:44:54.949Z,99.10
2018-06-14T00:47:23.624Z,99.00
2018-06-14T00:49:52.291Z,98.90
2018-06-14T00:52:20.927Z,99.40
2018-06-14T00:54:49.592Z,99.30
2018-06-14T00:57:29.331Z,99.20
2018-06-14T00:59:57.950Z,99.20
2018-06-14T01:02:27.174Z,99.30
2018-06-14T01:04:55.787Z,99.40
2018-06-14T01:07:24.622Z,99.60
2018-06-14T01:09:53.199Z,99.40
2018-06-14T01:12:21.833Z,99.70
2018-06-14T01:14:50.554Z,99.90
2018-06-14T01:17:19.208Z,99.20
2018-06-14T01:19:47.845Z,99.20
2018-06-14T01:22:16.507Z,99.40
2018-06-14T01:24:45.177Z,99.50
2018-06-14T01:27:13.813Z,99.60
2018-06-14T01:32:10.709Z,99.20
2018-06-14T01:34:39.373Z,99.20
2018-06-14T01:39:36.210Z,99.20
2018-06-14T01:42:04.914Z,99.20
2018-06-14T01:44:33.482Z,99.20
2018-06-14T01:47:02.096Z,99.30
2018-06-14T01:49:30.734Z,99.10
2018-06-14T01:51:59.344Z,99.20
2018-06-14T01:54:27.986Z,99.30
2018-06-14T01:56:56.615Z,99.30
2018-06-14T01:59:25.416Z,99.30
2018-06-14T02:01:54.051Z,99.60
2018-06-14T02:04:22.603Z,99.80
2018-06-14T02:06:51.187Z,99.90
2018-06-14T02:09:19.774Z,99.80
2018-06-14T02:11:48.412Z,99.90
2018-06-14T02:16:45.317Z,99.90
2018-06-14T02:19:13.948Z,99.90
2018-06-14T02:21:42.568Z,99.90
2018-06-14T02:24:11.282Z,99.90
2018-06-14T02:26:39.987Z,99.90
2018-06-14T02:29:08.603Z,99.80
2018-06-14T02:31:37.178Z,99.70
2018-06-14T02:34:05.816Z,99.60
2018-06-14T02:36:34.456Z,99.80
2018-06-14T02:39:03.106Z,99.90
2018-06-14T02:41:31.667Z,99.80
2018-06-14T02:44:00.464Z,99.90
2018-06-14T02:46:29.128Z,99.90
2018-06-14T02:48:57.759Z,99.90
2018-06-14T02:51:26.577Z,99.90
2018-06-14T02:53:55.230Z,99.90
2018-06-14T02:56:23.889Z,99.90
2018-06-14T02:58:52.563Z,99.90
2018-06-14T03:01:21.195Z,99.90
2018-06-14T03:03:49.908Z,99.90
2018-06-14T03:06:18.578Z,99.90
2018-06-14T03:08:47.283Z,99.90
2018-06-14T03:11:15.905Z,99.90
2018-06-14T03:13:44.660Z,99.90
2018-06-14T03:16:13.335Z,99.90
2018-06-14T03:18:41.973Z,99.90
2018-06-14T03:21:10.608Z,99.90
2018-06-14T03:23:39.347Z,99.90
2018-06-14T03:26:08.051Z,99.90
2018-06-14T03:31:04.970Z,99.90
2018-06-14T03:33:33.612Z,99.90
2018-06-14T03:36:02.221Z,99.90
2018-06-14T03:38:30.859Z,99.90
2018-06-14T03:40:59.529Z,99.90
2018-06-14T03:43:28.222Z,99.90
2018-06-14T03:45:56.939Z,99.90
2018-06-14T03:48:30.558Z,99.90
2018-06-14T03:50:59.144Z,99.90
2018-06-14T03:53:27.760Z,99.90
2018-06-14T03:55:56.345Z,99.90
2018-06-14T03:58:25.125Z,99.90
2018-06-14T04:00:53.746Z,99.90
2018-06-14T04:03:22.374Z,99.90
2018-06-14T04:05:50.971Z,99.90
2018-06-14T04:08:19.593Z,99.90
2018-06-14T04:13:16.461Z,99.90
2018-06-14T04:15:45.067Z,99.90
2018-06-14T04:18:13.679Z,99.90
2018-06-14T04:20:42.298Z,99.90
2018-06-14T04:23:11.030Z,99.90
2018-06-14T04:25:39.622Z,99.90
2018-06-14T04:28:08.236Z,99.90
2018-06-14T04:30:36.867Z,99.90
2018-06-14T04:33:05.479Z,99.90
2018-06-14T04:35:34.354Z,99.90
2018-06-14T04:38:02.946Z,99.90
2018-06-14T04:40:31.527Z,99.90
2018-06-14T04:43:00.154Z,99.90
2018-06-14T04:45:28.770Z,99.90
2018-06-14T04:47:57.334Z,99.90
2018-06-14T04:50:25.946Z,99.90
2018-06-14T04:52:54.586Z,99.90
2018-06-14T04:55:23.190Z,99.90
2018-06-14T04:57:51.828Z,99.90
2018-06-14T05:00:20.461Z,99.90
2018-06-14T05:02:49.153Z,99.90
2018-06-14T05:05:17.832Z,99.90
2018-06-14T05:07:46.472Z,99.90
2018-06-14T05:10:15.208Z,99.90
2018-06-14T05:12:43.819Z,99.90
2018-06-14T05:15:12.479Z,99.90
2018-06-14T05:17:41.150Z,99.90
2018-06-14T05:20:09.832Z,99.90
2018-06-14T05:22:38.406Z,99.90
2018-06-14T05:25:07.070Z,99.90
2018-06-14T05:27:35.771Z,99.90
2018-06-14T05:30:04.519Z,99.90
2018-06-14T05:32:33.120Z,99.90
2018-06-14T05:35:01.910Z,99.90
2018-06-14T05:37:30.635Z,99.90
2018-06-14T05:39:59.223Z,99.90
2018-06-14T05:42:28.556Z,99.90
2018-06-14T05:47:26.119Z,99.90
2018-06-14T05:49:54.753Z,99.90
2018-06-14T05:52:23.459Z,99.90
2018-06-14T05:54:52.070Z,99.90
2018-06-14T05:57:20.860Z,99.90
2018-06-14T05:59:49.469Z,99.90
2018-06-14T06:02:18.110Z,99.90
2018-06-14T06:04:46.916Z,99.90
2018-06-14T06:07:15.539Z,99.90
2018-06-14T06:09:44.152Z,99.90
2018-06-14T06:12:12.731Z,99.90
2018-06-14T06:14:41.389Z,99.90
2018-06-14T06:17:10.022Z,99.90
2018-06-14T06:19:38.636Z,99.90
2018-06-14T06:22:07.230Z,99.90
2018-06-14T06:24:35.951Z,99.90
2018-06-14T06:27:04.680Z,99.90
2018-06-14T06:29:33.318Z,99.90
2018-06-14T06:32:01.995Z,99.90
2018-06-14T06:34:30.728Z,99.90
2018-06-14T06:36:59.392Z,99.90
2018-06-14T06:39:29.857Z,99.90
2018-06-14T06:41:58.579Z,99.90
2018-06-14T06:44:27.262Z,99.90
2018-06-14T06:46:55.958Z,99.90
2018-06-14T06:49:24.781Z,99.90
2018-06-14T06:51:53.510Z,99.90
2018-06-14T06:54:22.379Z,99.90
2018-06-14T06:56:51.093Z,99.90
2018-06-14T06:59:19.801Z,99.90
2018-06-14T07:01:48.599Z,99.90
2018-06-14T07:04:17.442Z,99.90
2018-06-14T07:06:46.128Z,99.90
2018-06-14T07:09:14.840Z,99.90
2018-06-14T07:11:43.499Z,99.90
2018-06-14T07:14:12.418Z,99.90
2018-06-14T07:16:41.154Z,99.90
2018-06-14T07:19:09.879Z,99.90
2018-06-14T07:21:38.628Z,99.90
2018-06-14T07:24:07.399Z,99.90
2018-06-14T07:26:36.137Z,99.30
2018-06-14T07:29:04.899Z,98.00
2018-06-14T07:31:33.528Z,97.50
2018-06-14T07:34:02.173Z,96.30
2018-06-14T07:36:30.934Z,95.40
2018-06-14T07:38:59.648Z,94.70
2018-06-14T07:41:28.606Z,93.80
2018-06-14T07:43:57.290Z,93.40
2018-06-14T07:46:26.012Z,93.80
2018-06-14T07:48:54.690Z,93.10
2018-06-14T07:51:23.399Z,92.90
2018-06-14T07:53:52.047Z,92.70
2018-06-14T07:56:20.694Z,92.50
2018-06-14T07:58:49.422Z,92.80
2018-06-14T08:01:18.331Z,93.00
2018-06-14T08:03:47.251Z,92.40
2018-06-14T08:06:18.153Z,92.20
2018-06-14T08:11:40.664Z,92.50
2018-06-14T08:14:09.473Z,92.30
2018-06-14T08:16:38.227Z,91.70
2018-06-14T08:19:08.104Z,91.70
2018-06-14T08:21:36.923Z,91.90
2018-06-14T08:24:05.679Z,91.50
2018-06-14T08:26:34.391Z,91.20
2018-06-14T08:29:03.314Z,91.20
2018-06-14T08:31:32.329Z,91.00
2018-06-14T08:34:03.050Z,91.10
2018-06-14T08:36:31.759Z,90.70
2018-06-14T08:39:00.476Z,91.00
2018-06-14T08:41:29.288Z,90.80
2018-06-14T08:43:58.000Z,90.80
2018-06-14T08:46:26.683Z,90.00
2018-06-14T08:48:55.496Z,89.80
2018-06-14T08:51:25.132Z,88.70
2018-06-14T08:53:53.887Z,88.60
2018-06-14T08:56:22.622Z,89.50
2018-06-14T08:58:51.403Z,88.60
2018-06-14T09:01:20.050Z,88.80
2018-06-14T09:03:48.731Z,87.60
2018-06-14T09:06:17.379Z,88.40
2018-06-14T09:08:46.178Z,86.90
2018-06-14T09:11:14.916Z,87.60
2018-06-14T09:13:43.566Z,88.40
2018-06-14T09:16:12.225Z,87.90
2018-06-14T09:18:40.900Z,85.50
2018-06-14T09:21:10.527Z,87.40
2018-06-14T09:23:39.243Z,85.00
2018-06-14T09:26:07.866Z,86.70
2018-06-14T09:28:36.621Z,84.70
2018-06-14T09:31:05.343Z,83.70
2018-06-14T09:33:33.995Z,82.90
2018-06-14T09:36:02.707Z,83.80
2018-06-14T09:38:31.478Z,86.70
2018-06-14T09:41:00.143Z,86.10
2018-06-14T09:43:28.881Z,84.60
2018-06-14T09:45:57.578Z,81.40
2018-06-14T09:48:26.280Z,82.70
2018-06-14T09:50:54.925Z,83.60
2018-06-14T09:53:23.593Z,82.30
2018-06-14T09:55:52.259Z,83.40
2018-06-14T09:58:20.963Z,83.10
2018-06-14T10:00:49.581Z,83.30
2018-06-14T10:03:18.206Z,82.30
2018-06-14T10:05:46.871Z,80.30
2018-06-14T10:08:15.518Z,82.30
2018-06-14T10:10:44.187Z,82.50
2018-06-14T10:13:12.898Z,81.10
2018-06-14T10:15:41.598Z,80.70
2018-06-14T10:18:10.441Z,81.70
2018-06-14T10:20:39.963Z,79.40
2018-06-14T10:23:09.181Z,79.60
2018-06-14T10:25:37.914Z,81.30
2018-06-14T10:30:34.804Z,82.20
2018-06-14T10:33:03.463Z,82.10
2018-06-14T10:35:32.167Z,80.40
2018-06-14T10:38:00.755Z,80.40
2018-06-14T10:40:29.480Z,79.00
2018-06-14T10:43:02.259Z,80.10
2018-06-14T10:45:31.309Z,81.00
2018-06-14T10:50:28.386Z,79.90
2018-06-14T10:52:57.165Z,78.30
2018-06-14T10:55:25.862Z,79.50
2018-06-14T10:57:54.590Z,79.10
2018-06-14T11:00:23.258Z,79.00
2018-06-14T11:02:51.952Z,78.20
2018-06-14T11:05:20.660Z,79.20
2018-06-14T11:07:58.747Z,78.30
2018-06-14T11:10:27.388Z,78.10
2018-06-14T11:12:56.062Z,80.00
2018-06-14T11:15:24.758Z,81.60
2018-06-14T11:17:53.451Z,80.80
2018-06-14T11:20:22.158Z,81.30
2018-06-14T11:22:50.822Z,80.70
2018-06-14T11:25:19.505Z,79.70
2018-06-14T11:27:48.347Z,78.30
2018-06-14T11:30:17.432Z,77.80
2018-06-14T11:32:46.142Z,77.50
2018-06-14T11:37:52.896Z,77.70
2018-06-14T11:40:21.544Z,78.60
2018-06-14T11:42:50.187Z,79.00
2018-06-14T11:45:18.902Z,78.10
2018-06-14T11:47:47.554Z,76.90
2018-06-14T11:50:16.164Z,77.30
2018-06-14T11:52:44.884Z,77.40
2018-06-14T11:55:13.598Z,77.50
2018-06-14T11:57:42.303Z,77.20
2018-06-14T12:00:11.338Z,77.70
2018-06-14T12:02:40.008Z,77.30
2018-06-14T12:05:08.698Z,77.20
2018-06-14T12:07:37.430Z,76.60
2018-06-14T12:10:06.084Z,77.90
2018-06-14T12:12:34.914Z,77.70
2018-06-14T12:15:03.661Z,77.20
2018-06-14T12:17:32.275Z,78.60
2018-06-14T12:20:01.058Z,76.70
2018-06-14T12:22:29.805Z,76.60
2018-06-14T12:24:58.519Z,74.90
2018-06-14T12:27:27.233Z,76.90
2018-06-14T12:30:01.248Z,75.30
2018-06-14T12:32:29.897Z,74.80
2018-06-14T12:34:58.607Z,75.60
2018-06-14T12:37:27.284Z,74.30
2018-06-14T12:39:55.988Z,74.50
2018-06-14T12:42:24.688Z,76.20
2018-06-14T12:44:53.448Z,73.50
2018-06-14T12:47:22.095Z,75.00
2018-06-14T12:49:50.961Z,75.10
2018-06-14T12:52:19.634Z,73.60
2018-06-14T12:54:48.340Z,73.60
2018-06-14T12:57:17.109Z,75.10
2018-06-14T12:59:46.047Z,74.00
2018-06-14T13:02:19.481Z,73.40
2018-06-14T13:07:16.955Z,73.70
2018-06-14T13:09:46.318Z,73.40
2018-06-14T13:12:15.042Z,74.00
2018-06-14T13:17:12.132Z,72.80
2018-06-14T13:22:09.334Z,74.10
2018-06-14T13:24:41.334Z,73.60
2018-06-14T13:27:10.908Z,71.70
2018-06-14T13:29:39.828Z,71.80
2018-06-14T13:32:08.474Z,72.20
2018-06-14T13:34:37.446Z,72.40
2018-06-14T13:37:06.142Z,70.60
2018-06-14T13:39:40.055Z,71.50
2018-06-14T13:42:08.774Z,71.20
2018-06-14T13:44:37.425Z,71.60
2018-06-14T13:47:06.118Z,70.60
2018-06-14T13:49:34.776Z,71.10
2018-06-14T13:52:03.451Z,70.10
2018-06-14T13:54:32.141Z,71.10
2018-06-14T13:57:01.063Z,70.50
2018-06-14T13:59:29.912Z,69.20
2018-06-14T14:01:58.547Z,70.30
2018-06-14T14:04:27.238Z,68.80
2018-06-14T14:07:00.969Z,67.90
2018-06-14T14:09:29.720Z,69.50
2018-06-14T14:11:58.366Z,69.70
2018-06-14T14:14:27.124Z,69.40
2018-06-14T14:16:55.757Z,69.60
2018-06-14T14:19:24.538Z,68.80
2018-06-14T14:21:53.290Z,69.60
2018-06-14T14:26:50.897Z,71.20
2018-06-14T14:29:19.608Z,70.40
2018-06-14T14:31:48.295Z,70.50
2018-06-14T14:34:17.612Z,70.70
2018-06-14T14:36:46.331Z,70.00
2018-06-14T14:39:15.064Z,68.70
2018-06-14T14:41:43.751Z,68.40
2018-06-14T14:44:12.503Z,69.40
2018-06-14T14:46:41.187Z,69.20
2018-06-14T14:49:19.346Z,67.80
2018-06-14T14:51:47.934Z,67.20
2018-06-14T14:54:16.636Z,67.70
2018-06-14T14:59:13.671Z,66.70
2018-06-14T15:01:42.415Z,67.00
2018-06-14T15:04:11.380Z,66.70
2018-06-14T15:09:09.171Z,65.10
2018-06-14T15:11:37.826Z,66.10
2018-06-14T15:14:06.444Z,66.60
2018-06-14T15:16:35.062Z,67.00
2018-06-14T15:19:17.321Z,67.80
2018-06-14T15:21:45.922Z,66.60
2018-06-14T15:24:14.563Z,67.20
2018-06-14T15:26:43.339Z,66.20
2018-06-14T15:29:12.012Z,65.90
2018-06-14T15:31:40.695Z,65.80
2018-06-14T15:34:09.394Z,66.30
2018-06-14T15:36:38.054Z,67.10
2018-06-14T15:39:08.090Z,67.50
2018-06-14T15:41:36.763Z,66.90
2018-06-14T15:44:05.414Z,67.70
2018-06-14T15:46:34.221Z,67.40
2018-06-14T15:49:08.284Z,67.90
2018-06-14T15:51:36.972Z,65.70
2018-06-14T15:56:34.692Z,66.90
2018-06-14T15:59:09.716Z,66.80
2018-06-14T16:01:39.107Z,67.10
2018-06-14T16:04:08.200Z,68.50
2018-06-14T16:06:36.966Z,67.40
2018-06-14T16:09:08.258Z,66.60
2018-06-14T16:11:36.915Z,65.90
2018-06-14T16:14:05.781Z,65.90
2018-06-14T16:16:34.504Z,66.20
2018-06-14T16:19:12.557Z,68.60
2018-06-14T16:21:41.251Z,68.20
2018-06-14T16:24:09.874Z,67.00
2018-06-14T16:26:38.487Z,67.00
2018-06-14T16:29:07.599Z,67.30
2018-06-14T16:31:36.287Z,66.50
2018-06-14T16:34:04.942Z,67.40
2018-06-14T16:36:33.646Z,67.70
2018-06-14T16:39:11.843Z,68.00
2018-06-14T16:41:40.503Z,68.60
2018-06-14T16:44:09.171Z,68.70
2018-06-14T16:46:37.767Z,69.30
2018-06-14T16:49:06.640Z,70.50
2018-06-14T16:51:35.267Z,71.40
2018-06-14T16:54:03.847Z,70.10
2018-06-14T16:56:32.591Z,70.10
2018-06-14T16:59:01.234Z,71.30
2018-06-14T17:01:29.978Z,72.00
2018-06-14T17:03:58.592Z,72.20
2018-06-14T17:06:27.386Z,73.40
2018-06-14T17:08:55.968Z,72.70
2018-06-14T17:11:24.598Z,72.70
2018-06-14T17:13:53.440Z,72.80
2018-06-14T17:16:26.421Z,73.80
2018-06-14T17:19:13.128Z,73.90
2018-06-14T17:21:41.906Z,74.00
2018-06-14T17:24:10.655Z,74.00
2018-06-14T17:26:39.332Z,74.10
2018-06-14T17:32:14.683Z,75.40
2018-06-14T17:34:43.358Z,75.70
2018-06-14T17:37:12.109Z,76.30
2018-06-14T17:39:41.027Z,76.00
2018-06-14T17:42:09.672Z,76.80
2018-06-14T17:44:38.436Z,77.10
2018-06-14T17:47:07.203Z,77.00
2018-06-14T17:49:35.882Z,77.10
2018-06-14T17:52:04.570Z,77.00
2018-06-14T17:54:33.541Z,77.00
2018-06-14T17:57:02.171Z,76.50
2018-06-14T17:59:31.029Z,76.60
2018-06-14T18:01:59.658Z,76.50
2018-06-14T18:04:28.330Z,76.00
2018-06-14T18:06:56.931Z,76.70
2018-06-14T18:09:25.754Z,76.40
2018-06-14T18:11:54.435Z,76.50
2018-06-14T18:14:23.034Z,76.60
2018-06-14T18:16:51.699Z,77.00
2018-06-14T18:19:20.471Z,77.60
2018-06-14T18:21:49.104Z,78.20
2018-06-14T18:24:17.714Z,78.70
2018-06-14T18:26:46.531Z,78.50
2018-06-14T18:29:15.248Z,77.90
2018-06-14T18:31:43.910Z,78.00
2018-06-14T18:34:12.611Z,78.40
2018-06-14T18:36:41.319Z,78.00
2018-06-14T18:39:11.369Z,78.60
2018-06-14T18:41:40.115Z,77.90
2018-06-14T18:44:08.747Z,78.10
2018-06-14T18:46:37.819Z,78.20
2018-06-14T18:49:06.514Z,77.90
2018-06-14T18:51:35.739Z,78.80
2018-06-14T18:54:04.468Z,78.30
2018-06-14T18:56:33.264Z,78.80
2018-06-14T19:01:54.806Z,79.20
2018-06-14T19:04:23.498Z,79.30
2018-06-14T19:06:52.182Z,79.00
2018-06-14T19:09:20.919Z,79.50
2018-06-14T19:11:49.533Z,79.70
2018-06-14T19:14:18.164Z,80.10
2018-06-14T19:16:46.857Z,80.80
2018-06-14T19:19:15.736Z,80.30
2018-06-14T19:21:44.309Z,81.20
2018-06-14T19:24:13.020Z,81.20
2018-06-14T19:26:41.740Z,82.20
2018-06-14T19:29:10.529Z,82.20
2018-06-14T19:31:39.158Z,82.70
2018-06-14T19:34:07.943Z,82.50
2018-06-14T19:36:36.515Z,83.30
2018-06-14T19:39:07.554Z,84.20
2018-06-14T19:44:04.730Z,83.70
2018-06-14T19:46:33.402Z,84.10
2018-06-14T19:51:56.498Z,84.10
2018-06-14T19:54:26.342Z,83.80
2018-06-14T19:56:54.999Z,84.50
2018-06-14T19:59:23.823Z,84.30
2018-06-14T20:01:52.500Z,84.20
2018-06-14T20:04:21.436Z,84.70
2018-06-14T20:06:50.006Z,84.80
2018-06-14T20:12:05.067Z,85.10
2018-06-14T20:14:33.750Z,85.50
2018-06-14T20:17:02.413Z,86.10
2018-06-14T20:19:31.098Z,86.60
2018-06-14T20:21:59.726Z,87.00
2018-06-14T20:26:56.595Z,89.20
2018-06-14T20:29:38.967Z,90.00
2018-06-14T20:32:07.694Z,90.00
2018-06-14T20:34:36.383Z,89.80
2018-06-14T20:37:05.114Z,90.20
2018-06-14T20:39:33.766Z,90.40
2018-06-14T20:42:02.498Z,90.40
2018-06-14T20:44:31.110Z,90.60
2018-06-14T20:46:59.743Z,90.60
2018-06-14T20:49:37.697Z,90.50
2018-06-14T20:52:06.314Z,91.20
2018-06-14T20:54:35.063Z,91.50
2018-06-14T20:57:03.687Z,91.80
2018-06-14T20:59:32.346Z,91.50
2018-06-14T21:02:00.955Z,91.40
2018-06-14T21:04:29.627Z,91.60
2018-06-14T21:06:58.224Z,91.50
2018-06-14T21:09:26.879Z,91.50
2018-06-14T21:14:23.981Z,91.60
2018-06-14T21:16:52.647Z,91.80
2018-06-14T21:19:21.359Z,92.10
2018-06-14T21:21:50.065Z,92.40
2018-06-14T21:24:19.708Z,92.50
2018-06-14T21:26:48.406Z,92.50
2018-06-14T21:29:30.638Z,92.70
2018-06-14T21:31:59.287Z,93.00
2018-06-14T21:34:27.878Z,93.40
2018-06-14T21:36:56.539Z,93.70
2018-06-14T21:39:25.151Z,94.00
2018-06-14T21:41:53.763Z,94.10
2018-06-14T21:44:22.410Z,94.40
2018-06-14T21:46:51.016Z,94.40
2018-06-14T21:49:29.249Z,94.40
2018-06-14T21:51:57.914Z,94.40
2018-06-14T21:54:26.588Z,94.30
2018-06-14T21:56:55.238Z,94.50
2018-06-14T21:59:28.950Z,94.60
2018-06-14T22:01:57.619Z,94.80
2018-06-14T22:04:26.262Z,95.20
2018-06-14T22:06:54.902Z,95.40
2018-06-14T22:09:23.521Z,95.60
2018-06-14T22:11:52.187Z,95.80
2018-06-14T22:14:20.831Z,96.30
2018-06-14T22:22:11.056Z,96.30
2018-06-14T22:24:39.706Z,96.30
2018-06-14T22:27:08.348Z,96.30
2018-06-14T22:29:37.233Z,96.10
2018-06-14T22:34:45.249Z,96.30
2018-06-14T22:37:13.904Z,96.50
2018-06-14T22:39:42.566Z,96.60
2018-06-14T22:42:11.274Z,96.70
2018-06-14T22:44:39.887Z,96.70
2018-06-14T22:47:08.490Z,96.70
2018-06-14T22:49:37.177Z,96.50
2018-06-14T22:53:20.010Z,96.70
2018-06-14T22:55:48.675Z,96.70
2018-06-14T22:58:17.460Z,96.30
2018-06-14T23:01:49.844Z,96.00
2018-06-14T23:04:19.832Z,96.30
2018-06-14T23:06:48.518Z,96.70
2018-06-14T23:10:43.683Z,96.80
2018-06-14T23:13:14.592Z,96.80
2018-06-14T23:15:43.256Z,96.90
2018-06-14T23:20:58.645Z,96.50
2018-06-14T23:23:27.265Z,96.70
2018-06-14T23:25:55.832Z,96.80
2018-06-14T23:28:24.482Z,96.70
2018-06-14T23:30:53.116Z,96.70
2018-06-14T23:33:21.753Z,96.70
2018-06-14T23:35:50.432Z,96.70
2018-06-14T23:38:28.574Z,96.70
2018-06-14T23:40:57.243Z,96.80
2018-06-14T23:43:25.899Z,97.10
2018-06-14T23:45:54.536Z,97.30
2018-06-14T23:48:23.191Z,97.50
2018-06-14T23:50:51.837Z,97.70
2018-06-14T23:53:20.491Z,97.70
2018-06-14T23:55:49.146Z,97.70
2018-06-14T23:58:17.763Z,97.70
